Time;durP1;ratioP1;P1;durP2;ratioP2;P2;SDS_P1;SDS_P2;PMS_P1;PMS_P2;Temp;Humidity;BMP_temperature;BMP_pressure;BME280_temperature;BME280_humidity;BME280_pressure;Samples;Min_cycle;Max_cycle;Signal;HPM_P1;HPM_P2
2023/12/13 00:02:25;;;;;;;5.72;2.38;;;10.60;99.90;;;;;;4997274;28;20053;-71
2023/12/13 00:04:51;;;;;;;6.55;2.10;;;10.60;99.90;;;;;;4998521;28;20088;-70
2023/12/13 00:07:17;;;;;;;11.40;2.70;;;10.60;99.90;;;;;;4996199;28;20034;-71
2023/12/13 00:09:42;;;;;;;7.75;2.50;;;10.60;99.90;;;;;;4997599;28;20034;-70
2023/12/13 00:12:08;;;;;;;6.55;2.40;;;10.60;99.90;;;;;;4981919;28;20022;-70
2023/12/13 00:14:34;;;;;;;5.65;2.40;;;10.60;99.90;;;;;;4996312;28;20060;-70
2023/12/13 00:16:59;;;;;;;5.38;2.42;;;10.60;99.90;;;;;;4996107;28;20558;-70
2023/12/13 00:19:25;;;;;;;5.70;2.85;;;10.50;99.90;;;;;;4997662;28;20422;-71
2023/12/13 00:21:51;;;;;;;13.25;2.70;;;10.60;99.90;;;;;;5007112;28;20093;-70
2023/12/13 00:24:16;;;;;;;7.47;2.90;;;10.60;99.90;;;;;;5010469;28;20041;-71
2023/12/13 00:26:42;;;;;;;5.68;1.92;;;10.60;99.90;;;;;;5006821;28;20436;-73
2023/12/13 00:29:11;;;;;;;13.07;2.72;;;10.60;99.90;;;;;;5011138;28;20026;-71
2023/12/13 00:31:36;;;;;;;9.70;3.10;;;10.70;99.90;;;;;;5007425;28;20430;-71
2023/12/13 00:34:03;;;;;;;5.25;2.50;;;10.60;99.90;;;;;;5011007;28;20037;-71
2023/12/13 00:36:29;;;;;;;8.27;2.75;;;10.60;99.90;;;;;;5010236;28;20133;-70
2023/12/13 00:38:54;;;;;;;10.23;2.47;;;10.60;99.90;;;;;;5010743;28;20112;-71
2023/12/13 00:41:21;;;;;;;6.32;2.67;;;10.60;99.90;;;;;;5009787;28;20039;-70
2023/12/13 00:43:47;;;;;;;7.20;2.92;;;10.60;99.90;;;;;;5009871;28;21685;-71
2023/12/13 00:46:19;;;;;;;7.88;2.90;;;10.60;99.90;;;;;;5010734;28;20609;-70
2023/12/13 00:48:47;;;;;;;14.15;3.15;;;10.60;99.90;;;;;;5009196;28;20039;-71
2023/12/13 00:51:21;;;;;;;8.80;2.67;;;10.50;99.90;;;;;;4993770;28;20057;-70
2023/12/13 00:53:47;;;;;;;7.63;2.92;;;10.50;99.90;;;;;;5009826;28;20026;-70
2023/12/13 00:56:13;;;;;;;8.48;3.15;;;10.50;99.90;;;;;;5010756;28;20030;-70
2023/12/13 00:58:39;;;;;;;12.68;3.05;;;10.50;99.90;;;;;;5009990;28;20030;-71
2023/12/13 01:01:06;;;;;;;8.80;3.20;;;10.50;99.90;;;;;;5009642;28;20056;-70
2023/12/13 01:03:32;;;;;;;7.05;3.03;;;10.50;99.90;;;;;;5007420;28;20034;-71
2023/12/13 01:05:58;;;;;;;13.18;3.50;;;10.40;99.90;;;;;;5009704;28;20022;-70
2023/12/13 01:08:24;;;;;;;10.38;3.08;;;10.40;99.90;;;;;;5009917;28;20038;-71
2023/12/13 01:10:49;;;;;;;10.95;2.97;;;10.40;99.90;;;;;;5011001;28;20026;-70
2023/12/13 01:13:15;;;;;;;7.60;2.85;;;10.40;99.90;;;;;;5009331;28;20445;-70
2023/12/13 01:15:41;;;;;;;14.60;2.83;;;10.50;99.90;;;;;;5006302;28;20475;-70
2023/12/13 01:18:06;;;;;;;10.55;3.70;;;10.40;99.90;;;;;;5014666;28;20038;-72
2023/12/13 01:20:32;;;;;;;13.20;3.30;;;10.50;99.90;;;;;;5013188;28;20539;-70
2023/12/13 01:22:58;;;;;;;13.20;3.80;;;10.50;99.90;;;;;;5012286;28;20026;-70
2023/12/13 01:25:24;;;;;;;11.32;3.67;;;10.50;99.90;;;;;;5013392;28;20526;-71
2023/12/13 01:27:49;;;;;;;20.00;4.00;;;10.50;99.90;;;;;;5013412;28;20034;-72
2023/12/13 01:30:15;;;;;;;11.95;2.90;;;10.50;99.90;;;;;;5013327;28;20037;-70
2023/12/13 01:32:41;;;;;;;12.27;3.13;;;10.60;99.90;;;;;;5012873;28;20033;-71
2023/12/13 01:35:07;;;;;;;14.05;3.47;;;10.50;99.90;;;;;;5009773;28;20061;-71
2023/12/13 01:37:33;;;;;;;21.73;4.28;;;10.60;99.90;;;;;;5014581;28;20064;-70
2023/12/13 01:39:58;;;;;;;16.02;3.67;;;10.60;99.90;;;;;;5010826;28;20049;-70
2023/12/13 01:42:24;;;;;;;16.50;3.97;;;10.60;99.90;;;;;;5014036;28;20034;-70
2023/12/13 01:44:50;;;;;;;11.40;3.75;;;10.60;99.90;;;;;;5012981;28;20041;-70
2023/12/13 01:47:17;;;;;;;14.77;3.60;;;10.60;99.90;;;;;;4996429;28;20017;-71
2023/12/13 01:49:44;;;;;;;10.13;3.55;;;10.60;99.90;;;;;;5013580;28;20091;-70
2023/12/13 01:52:11;;;;;;;19.13;3.42;;;10.70;99.90;;;;;;5015198;28;20021;-70
2023/12/13 01:54:37;;;;;;;15.10;4.13;;;10.70;99.90;;;;;;5010599;28;20037;-71
2023/12/13 01:57:04;;;;;;;15.20;3.67;;;10.70;99.90;;;;;;5013087;28;20633;-70
2023/12/13 01:59:32;;;;;;;14.05;3.67;;;10.70;99.90;;;;;;5012934;28;20038;-70
2023/12/13 02:01:58;;;;;;;19.23;3.72;;;10.60;99.90;;;;;;5012777;28;20022;-71
2023/12/13 02:04:25;;;;;;;20.27;3.78;;;10.60;99.90;;;;;;5014385;28;20504;-70
2023/12/13 02:06:52;;;;;;;16.67;3.95;;;10.60;99.90;;;;;;5012979;28;20117;-71
2023/12/13 02:09:17;;;;;;;19.33;3.83;;;10.60;99.90;;;;;;5012542;28;20028;-70
2023/12/13 02:11:44;;;;;;;16.40;3.28;;;10.60;99.90;;;;;;5013448;28;20029;-70
2023/12/13 02:14:10;;;;;;;20.60;3.50;;;10.60;99.90;;;;;;5011019;28;20026;-70
2023/12/13 02:16:37;;;;;;;18.77;4.03;;;10.50;99.90;;;;;;5012759;28;20037;-70
2023/12/13 02:19:03;;;;;;;15.50;3.58;;;10.50;99.90;;;;;;5012303;28;20068;-70
2023/12/13 02:21:30;;;;;;;12.48;3.47;;;10.60;99.90;;;;;;5010537;28;20026;-70
2023/12/13 02:24:00;;;;;;;11.30;3.35;;;10.60;99.90;;;;;;5013739;28;20058;-70
2023/12/13 02:26:26;;;;;;;18.88;3.47;;;10.60;99.90;;;;;;5011920;28;20484;-70
2023/12/13 02:28:53;;;;;;;13.43;3.13;;;10.50;99.90;;;;;;5010544;28;20042;-71
2023/12/13 02:31:19;;;;;;;18.45;3.25;;;10.60;99.90;;;;;;4989335;28;20037;-70
2023/12/13 02:33:47;;;;;;;16.33;3.65;;;10.60;99.90;;;;;;4974970;28;20042;-70
2023/12/13 02:36:14;;;;;;;12.07;3.53;;;10.70;99.90;;;;;;4986185;28;20034;-70
2023/12/13 02:38:41;;;;;;;20.10;3.95;;;10.60;99.90;;;;;;4999729;28;20029;-71
2023/12/13 02:41:08;;;;;;;18.20;3.97;;;10.70;99.90;;;;;;4987994;28;20065;-71
2023/12/13 02:43:34;;;;;;;22.23;4.55;;;10.60;99.90;;;;;;4996437;28;20057;-72
2023/12/13 02:46:00;;;;;;;19.85;4.13;;;10.60;99.90;;;;;;5002794;28;20053;-71
2023/12/13 02:48:26;;;;;;;16.98;4.10;;;10.60;99.90;;;;;;5000858;28;20074;-71
2023/12/13 02:50:55;;;;;;;11.77;3.90;;;10.60;99.90;;;;;;5000848;28;20060;-71
2023/12/13 02:53:21;;;;;;;14.63;4.07;;;10.60;99.90;;;;;;5002319;28;20084;-71
2023/12/13 02:55:47;;;;;;;23.40;4.13;;;10.70;99.90;;;;;;5004443;28;20041;-70
2023/12/13 02:58:14;;;;;;;19.45;3.83;;;10.70;99.90;;;;;;5000230;28;20430;-71
2023/12/13 03:00:40;;;;;;;23.92;4.78;;;10.70;99.90;;;;;;4998142;28;20080;-71
2023/12/13 03:03:08;;;;;;;21.50;7.95;;;10.70;99.90;;;;;;4998937;28;20034;-71
2023/12/13 03:05:33;;;;;;;22.85;4.40;;;10.60;99.90;;;;;;4998230;28;20022;-70
2023/12/13 03:07:59;;;;;;;17.35;4.13;;;10.60;99.90;;;;;;4979346;28;20379;-70
2023/12/13 03:10:25;;;;;;;25.65;4.00;;;10.60;99.90;;;;;;5002334;28;20061;-70
2023/12/13 03:12:51;;;;;;;26.45;4.28;;;10.70;99.90;;;;;;5001501;28;20483;-70
2023/12/13 03:15:17;;;;;;;20.55;4.25;;;10.60;99.90;;;;;;4999936;28;20049;-71
2023/12/13 03:17:42;;;;;;;23.77;4.05;;;10.60;99.90;;;;;;5000850;28;20026;-71
2023/12/13 03:20:10;;;;;;;21.85;5.20;;;10.60;99.90;;;;;;4998586;28;20022;-71
2023/12/13 03:22:35;;;;;;;22.33;4.28;;;10.60;99.90;;;;;;5001167;28;20525;-71
2023/12/13 03:25:01;;;;;;;14.10;4.05;;;10.60;99.90;;;;;;4997769;28;20025;-72
2023/12/13 03:27:27;;;;;;;17.83;3.83;;;10.60;99.90;;;;;;5002616;28;20030;-71
2023/12/13 03:29:52;;;;;;;18.17;4.40;;;10.70;99.90;;;;;;4987956;28;20034;-70
2023/12/13 03:32:18;;;;;;;14.82;4.45;;;10.60;99.90;;;;;;4996294;28;20379;-70
2023/12/13 03:34:44;;;;;;;18.40;4.50;;;10.70;99.90;;;;;;4986752;28;20498;-71
2023/12/13 03:37:09;;;;;;;22.77;4.78;;;10.70;99.90;;;;;;4999195;28;20030;-70
2023/12/13 03:39:35;;;;;;;25.85;4.97;;;10.70;99.90;;;;;;4996160;28;20394;-70
2023/12/13 03:42:01;;;;;;;27.60;5.07;;;10.70;99.90;;;;;;5000328;28;20042;-70
2023/12/13 03:44:27;;;;;;;21.55;4.05;;;10.70;99.90;;;;;;4997515;28;20041;-71
2023/12/13 03:46:57;;;;;;;22.35;4.30;;;10.70;99.90;;;;;;5001198;28;20025;-70
2023/12/13 03:49:23;;;;;;;21.77;4.78;;;10.70;99.90;;;;;;4998922;28;20935;-71
2023/12/13 03:51:48;;;;;;;20.05;5.50;;;10.70;99.90;;;;;;4999880;28;20030;-70
2023/12/13 03:54:14;;;;;;;26.55;4.97;;;10.70;99.90;;;;;;4976863;28;20388;-71
2023/12/13 03:56:41;;;;;;;21.75;4.95;;;10.70;99.90;;;;;;4986616;28;20053;-71
2023/12/13 03:59:07;;;;;;;25.23;4.97;;;10.70;99.90;;;;;;4997411;28;20549;-70
2023/12/13 04:01:33;;;;;;;30.92;5.70;;;10.70;99.90;;;;;;4998401;28;20022;-71
2023/12/13 04:03:58;;;;;;;28.70;5.15;;;10.70;99.90;;;;;;4994687;28;20770;-71
2023/12/13 04:06:24;;;;;;;23.00;4.75;;;10.70;99.90;;;;;;4999436;28;20244;-71
2023/12/13 04:08:50;;;;;;;26.42;4.82;;;10.70;99.90;;;;;;4979964;28;20108;-70
2023/12/13 04:11:15;;;;;;;25.35;4.85;;;10.70;99.90;;;;;;4999190;28;20025;-71
2023/12/13 04:13:41;;;;;;;25.63;5.35;;;10.70;99.90;;;;;;5000430;28;20471;-71
2023/12/13 04:16:08;;;;;;;21.38;4.95;;;10.70;99.90;;;;;;5000228;28;20030;-71
2023/12/13 04:18:34;;;;;;;24.83;4.60;;;10.80;99.90;;;;;;4998015;28;20054;-70
2023/12/13 04:21:00;;;;;;;21.23;4.43;;;10.70;99.90;;;;;;5001811;28;20052;-71
2023/12/13 04:23:26;;;;;;;20.42;4.90;;;10.70;99.90;;;;;;4998987;28;20053;-70
2023/12/13 04:25:51;;;;;;;22.90;4.32;;;10.80;99.90;;;;;;4999391;28;20551;-72
2023/12/13 04:28:17;;;;;;;26.50;4.95;;;10.80;99.90;;;;;;4999010;28;20506;-70
2023/12/13 04:30:43;;;;;;;22.95;4.38;;;10.80;99.90;;;;;;4998535;28;20029;-71
2023/12/13 04:33:09;;;;;;;24.80;4.80;;;10.80;99.90;;;;;;4985987;28;20030;-71
2023/12/13 04:35:34;;;;;;;22.88;4.50;;;10.80;99.90;;;;;;4997840;28;20499;-71
2023/12/13 04:38:00;;;;;;;17.95;4.32;;;10.80;99.90;;;;;;4999809;28;20030;-71
2023/12/13 04:40:26;;;;;;;22.38;4.40;;;10.80;99.90;;;;;;4996897;28;20022;-71
2023/12/13 04:42:51;;;;;;;22.83;5.25;;;10.70;99.90;;;;;;4998326;28;20045;-71
2023/12/13 04:45:17;;;;;;;30.80;4.88;;;10.80;99.90;;;;;;4998771;28;20526;-70
2023/12/13 04:47:43;;;;;;;25.42;4.72;;;10.80;99.90;;;;;;4999066;28;20507;-70
2023/12/13 04:50:09;;;;;;;20.63;4.53;;;10.80;99.90;;;;;;5000696;28;20053;-70
2023/12/13 04:52:35;;;;;;;23.88;5.22;;;10.80;99.90;;;;;;4995240;28;20018;-71
2023/12/13 04:55:01;;;;;;;25.02;5.95;;;10.90;99.90;;;;;;5001914;28;20133;-70
2023/12/13 04:57:27;;;;;;;27.70;4.88;;;10.80;99.90;;;;;;4998485;28;20537;-71
2023/12/13 04:59:53;;;;;;;27.02;4.43;;;10.80;99.90;;;;;;4999500;28;20032;-70
2023/12/13 05:02:19;;;;;;;23.05;5.10;;;10.90;99.90;;;;;;5000083;28;20073;-70
2023/12/13 05:04:45;;;;;;;19.13;4.35;;;10.80;99.90;;;;;;4986781;28;20045;-71
2023/12/13 05:07:11;;;;;;;30.88;5.30;;;10.90;99.90;;;;;;4999775;28;20430;-71
2023/12/13 05:09:37;;;;;;;28.55;5.10;;;10.80;99.90;;;;;;4999582;28;20114;-70
2023/12/13 05:12:03;;;;;;;25.15;5.57;;;10.80;99.90;;;;;;4998193;28;23009;-71
2023/12/13 05:14:29;;;;;;;32.67;5.70;;;10.90;99.90;;;;;;4998161;28;20569;-70
2023/12/13 05:16:54;;;;;;;24.10;5.45;;;10.80;99.90;;;;;;4998821;28;20040;-71
2023/12/13 05:19:20;;;;;;;29.27;5.50;;;10.80;99.90;;;;;;4997716;28;20014;-72
2023/12/13 05:21:46;;;;;;;22.15;4.38;;;10.90;99.90;;;;;;4999251;28;20061;-70
2023/12/13 05:24:12;;;;;;;25.90;4.85;;;10.90;99.90;;;;;;4998549;28;20052;-70
2023/12/13 05:26:37;;;;;;;20.77;5.30;;;10.80;99.90;;;;;;5001377;28;20052;-71
2023/12/13 05:29:03;;;;;;;36.88;6.25;;;10.90;99.90;;;;;;5001735;28;20108;-71
2023/12/13 05:31:29;;;;;;;24.15;4.90;;;10.90;99.90;;;;;;4993479;28;20479;-70
2023/12/13 05:33:55;;;;;;;24.40;6.03;;;10.90;99.90;;;;;;4997669;28;20045;-70
2023/12/13 05:36:22;;;;;;;27.23;5.60;;;10.80;99.90;;;;;;4998748;28;20038;-71
2023/12/13 05:38:47;;;;;;;33.58;6.22;;;10.80;99.90;;;;;;5003281;28;20497;-70
2023/12/13 05:41:13;;;;;;;19.73;5.28;;;10.80;99.90;;;;;;5009232;28;20038;-72
2023/12/13 05:43:40;;;;;;;20.92;5.20;;;10.80;99.90;;;;;;5011222;28;20042;-71
2023/12/13 05:46:07;;;;;;;25.70;5.72;;;10.80;99.90;;;;;;5008987;28;20084;-71
2023/12/13 05:48:33;;;;;;;26.20;5.05;;;10.80;99.90;;;;;;5009781;28;20040;-71
2023/12/13 05:50:59;;;;;;;19.98;4.72;;;10.80;99.90;;;;;;5009759;28;20382;-71
2023/12/13 05:53:25;;;;;;;26.08;4.13;;;10.80;99.90;;;;;;5009537;28;20025;-72
2023/12/13 05:55:51;;;;;;;26.15;4.50;;;10.80;99.90;;;;;;5009386;28;20100;-70
2023/12/13 05:58:17;;;;;;;25.48;4.88;;;10.80;99.90;;;;;;5007440;28;20068;-72
2023/12/13 06:00:43;;;;;;;20.00;4.10;;;10.80;99.90;;;;;;5010624;28;20057;-73
2023/12/13 06:03:09;;;;;;;14.20;4.13;;;10.80;99.90;;;;;;4996572;28;20026;-70
2023/12/13 06:05:35;;;;;;;27.98;5.45;;;10.90;99.90;;;;;;4998104;28;20455;-70
2023/12/13 06:08:01;;;;;;;26.45;5.30;;;10.90;99.90;;;;;;5014481;28;20013;-71
2023/12/13 06:10:27;;;;;;;27.33;5.05;;;10.90;99.90;;;;;;5013642;28;20022;-70
2023/12/13 06:12:53;;;;;;;24.88;4.97;;;10.90;99.90;;;;;;5012997;28;20022;-72
2023/12/13 06:15:21;;;;;;;24.52;5.13;;;10.90;99.90;;;;;;5011072;28;20038;-70
2023/12/13 06:17:48;;;;;;;16.35;4.65;;;10.90;99.90;;;;;;5014122;28;20030;-70
2023/12/13 06:20:14;;;;;;;26.65;5.80;;;10.90;99.90;;;;;;5012461;28;20092;-70
2023/12/13 06:22:39;;;;;;;24.55;6.00;;;11.00;99.90;;;;;;5014465;28;20023;-71
2023/12/13 06:25:06;;;;;;;21.90;5.50;;;10.80;99.90;;;;;;5010638;28;20087;-73
2023/12/13 06:27:32;;;;;;;28.10;6.47;;;10.90;99.90;;;;;;5012075;28;20014;-71
2023/12/13 06:29:57;;;;;;;23.52;5.53;;;10.80;99.90;;;;;;5011453;28;20045;-71
2023/12/13 06:32:23;;;;;;;24.67;5.70;;;10.90;99.90;;;;;;5010288;28;20025;-71
2023/12/13 06:34:49;;;;;;;19.33;4.65;;;10.90;99.90;;;;;;5013705;28;20463;-70
2023/12/13 06:37:15;;;;;;;17.77;4.47;;;10.90;99.90;;;;;;5010415;28;20483;-70
2023/12/13 06:39:40;;;;;;;17.20;5.15;;;10.80;99.90;;;;;;5013326;28;20057;-71
2023/12/13 06:42:09;;;;;;;17.90;4.95;;;10.80;99.90;;;;;;5012441;28;20060;-70
2023/12/13 06:44:39;;;;;;;29.83;5.70;;;10.80;99.90;;;;;;5010382;28;20029;-70
2023/12/13 06:47:05;;;;;;;23.75;5.55;;;10.80;99.90;;;;;;5010666;28;20547;-70
2023/12/13 06:49:32;;;;;;;15.45;5.13;;;10.80;99.90;;;;;;5013336;28;20113;-70
2023/12/13 06:51:58;;;;;;;19.33;5.82;;;10.80;99.90;;;;;;5012300;28;20022;-73
2023/12/13 06:54:24;;;;;;;28.30;5.75;;;10.80;99.90;;;;;;5008922;28;20042;-70
2023/12/13 06:56:50;;;;;;;26.38;6.30;;;10.80;99.90;;;;;;5012343;28;20558;-70
2023/12/13 06:59:16;;;;;;;28.90;8.70;;;10.80;99.90;;;;;;4993697;28;20084;-71
2023/12/13 07:01:42;;;;;;;16.42;5.53;;;10.90;99.90;;;;;;5011873;28;20023;-70
2023/12/13 07:04:08;;;;;;;20.50;6.20;;;10.90;99.90;;;;;;5011067;28;20034;-70
2023/12/13 07:06:33;;;;;;;22.80;6.65;;;10.90;99.90;;;;;;5011792;28;20490;-70
2023/12/13 07:08:59;;;;;;;29.45;6.18;;;10.90;99.90;;;;;;5009736;28;20443;-70
2023/12/13 07:11:25;;;;;;;19.88;5.63;;;10.90;99.90;;;;;;5009531;28;20691;-71
2023/12/13 07:13:51;;;;;;;17.92;5.30;;;10.90;99.90;;;;;;5012800;28;20065;-70
2023/12/13 07:16:17;;;;;;;24.50;5.70;;;10.90;99.90;;;;;;5010770;28;20061;-70
2023/12/13 07:18:43;;;;;;;20.65;6.43;;;10.90;99.90;;;;;;5009914;28;20034;-70
2023/12/13 07:21:09;;;;;;;17.05;5.60;;;10.90;99.90;;;;;;5010062;28;20033;-70
2023/12/13 07:23:35;;;;;;;15.43;5.60;;;10.90;99.90;;;;;;5011733;28;20034;-70
2023/12/13 07:26:02;;;;;;;17.15;5.30;;;10.90;99.90;;;;;;5008967;28;20026;-72
2023/12/13 07:28:29;;;;;;;9.80;5.30;;;10.90;99.90;;;;;;5012051;28;20485;-70
2023/12/13 07:30:57;;;;;;;17.05;6.22;;;10.90;99.90;;;;;;5010754;28;20160;-71
2023/12/13 07:33:23;;;;;;;20.08;6.38;;;10.90;99.90;;;;;;5011375;28;20030;-69
2023/12/13 07:35:49;;;;;;;19.05;6.35;;;10.90;99.90;;;;;;5011278;28;20383;-70
2023/12/13 07:38:15;;;;;;;29.13;7.80;;;10.90;99.90;;;;;;5011138;28;20030;-70
2023/12/13 07:40:46;;;;;;;17.75;6.95;;;11.00;99.90;;;;;;5009552;28;20383;-70
2023/12/13 07:43:12;;;;;;;21.08;7.43;;;10.90;99.90;;;;;;5012376;28;20028;-70
2023/12/13 07:45:38;;;;;;;23.38;7.53;;;10.90;99.90;;;;;;5010005;28;20025;-70
2023/12/13 07:48:04;;;;;;;24.92;7.03;;;10.90;99.90;;;;;;4991806;28;20120;-70
2023/12/13 07:50:31;;;;;;;28.48;7.57;;;10.90;99.90;;;;;;5008558;28;20038;-70
2023/12/13 07:52:57;;;;;;;19.15;7.03;;;11.00;99.90;;;;;;5010292;28;20485;-71
2023/12/13 07:55:23;;;;;;;16.70;7.32;;;11.00;99.90;;;;;;5012563;28;20092;-70
2023/12/13 07:57:52;;;;;;;27.27;7.68;;;11.00;99.90;;;;;;5010170;28;20173;-71
2023/12/13 08:00:18;;;;;;;24.08;8.30;;;11.00;99.90;;;;;;5011191;28;20510;-70
2023/12/13 08:02:43;;;;;;;32.20;8.25;;;11.00;99.90;;;;;;5012035;28;20045;-70
2023/12/13 08:05:10;;;;;;;28.13;8.25;;;11.00;99.90;;;;;;5010097;28;20952;-71
2023/12/13 08:07:35;;;;;;;28.80;8.10;;;11.10;99.90;;;;;;4989923;28;20033;-71
2023/12/13 08:10:03;;;;;;;26.90;8.50;;;11.10;99.90;;;;;;5010193;28;20444;-71
2023/12/13 08:12:29;;;;;;;31.60;9.15;;;11.10;99.90;;;;;;4992162;28;20485;-72
2023/12/13 08:14:54;;;;;;;24.85;8.25;;;11.00;99.90;;;;;;5008617;28;20053;-71
2023/12/13 08:17:20;;;;;;;40.55;9.30;;;11.00;99.90;;;;;;5009135;28;20438;-73
2023/12/13 08:19:46;;;;;;;28.45;7.60;;;11.00;99.90;;;;;;5009621;28;20026;-72
2023/12/13 08:22:12;;;;;;;30.08;8.43;;;11.00;99.90;;;;;;5007696;28;20050;-72
2023/12/13 08:24:37;;;;;;;26.13;7.97;;;11.00;99.90;;;;;;5007430;28;20014;-73
2023/12/13 08:27:03;;;;;;;26.60;8.05;;;11.00;99.90;;;;;;5007852;28;20506;-72
2023/12/13 08:29:30;;;;;;;26.73;7.22;;;11.00;99.90;;;;;;5008839;28;20026;-73
2023/12/13 08:31:56;;;;;;;24.52;7.40;;;10.90;99.90;;;;;;5007635;28;20029;-72
2023/12/13 08:34:21;;;;;;;29.30;7.78;;;10.90;99.90;;;;;;5010813;28;20037;-72
2023/12/13 08:36:47;;;;;;;31.27;7.78;;;10.90;99.90;;;;;;5007370;28;20439;-72
2023/12/13 08:39:13;;;;;;;26.02;7.88;;;10.90;99.90;;;;;;5009798;28;20021;-73
2023/12/13 08:41:39;;;;;;;23.55;7.47;;;10.90;99.90;;;;;;5008209;28;20449;-74
2023/12/13 08:44:05;;;;;;;18.33;7.22;;;11.00;99.90;;;;;;5010522;28;20029;-74
2023/12/13 08:46:30;;;;;;;26.95;6.57;;;10.90;99.90;;;;;;5006582;28;20033;-71
2023/12/13 08:48:56;;;;;;;26.70;7.45;;;10.90;99.90;;;;;;5005513;28;20034;-71
2023/12/13 08:51:23;;;;;;;22.70;6.53;;;10.90;99.90;;;;;;5008915;28;20394;-71
2023/12/13 08:53:52;;;;;;;31.98;8.35;;;11.00;99.90;;;;;;5010397;28;20073;-71
2023/12/13 08:56:18;;;;;;;23.42;7.43;;;10.90;99.90;;;;;;5010664;28;20117;-71
2023/12/13 08:58:44;;;;;;;28.83;8.32;;;10.90;99.90;;;;;;5010462;28;20117;-71
2023/12/13 09:01:09;;;;;;;35.45;7.90;;;10.90;99.90;;;;;;5010667;28;20500;-71
2023/12/13 09:03:35;;;;;;;30.13;8.52;;;10.90;99.90;;;;;;4957168;28;20453;-71
2023/12/13 09:06:01;;;;;;;20.60;7.70;;;10.90;99.90;;;;;;4995422;28;20029;-72
2023/12/13 09:08:27;;;;;;;24.15;8.00;;;11.00;99.90;;;;;;4999629;28;20030;-73
2023/12/13 09:10:53;;;;;;;25.85;8.57;;;11.00;99.90;;;;;;4996310;28;20022;-73
2023/12/13 09:13:18;;;;;;;28.10;8.38;;;11.10;99.90;;;;;;4999860;28;20464;-73
2023/12/13 09:15:44;;;;;;;25.67;8.45;;;11.10;99.90;;;;;;4994947;28;20491;-74
2023/12/13 09:18:10;;;;;;;26.85;8.07;;;11.10;99.90;;;;;;4998830;28;20061;-73
2023/12/13 09:20:36;;;;;;;27.63;8.48;;;11.10;99.90;;;;;;4997228;28;20034;-74
2023/12/13 09:23:02;;;;;;;30.02;8.27;;;11.10;99.90;;;;;;4998853;28;20021;-74
2023/12/13 09:25:27;;;;;;;30.65;8.35;;;11.10;99.90;;;;;;4984683;28;20498;-74
2023/12/13 09:27:53;;;;;;;27.05;8.27;;;11.10;99.90;;;;;;4996173;28;20029;-74
2023/12/13 09:30:19;;;;;;;32.83;9.13;;;11.10;99.90;;;;;;5000043;28;20030;-74
2023/12/13 09:32:44;;;;;;;27.08;8.95;;;11.10;99.90;;;;;;4999278;28;20038;-73
2023/12/13 09:35:10;;;;;;;28.80;8.10;;;11.20;99.90;;;;;;4995839;28;20034;-73
2023/12/13 09:37:36;;;;;;;36.03;9.55;;;11.20;99.90;;;;;;5000168;28;20045;-73
2023/12/13 09:40:02;;;;;;;31.95;7.80;;;11.30;99.90;;;;;;5003767;28;20446;-73
2023/12/13 09:42:30;;;;;;;30.52;9.00;;;11.30;99.90;;;;;;5001233;28;20018;-74
2023/12/13 09:44:57;;;;;;;29.45;9.02;;;11.40;99.90;;;;;;4999889;28;20033;-73
2023/12/13 09:47:24;;;;;;;29.15;9.25;;;11.30;99.90;;;;;;5001396;28;20402;-74
2023/12/13 09:49:52;;;;;;;32.55;9.35;;;11.30;99.90;;;;;;5002087;28;20386;-74
2023/12/13 09:52:20;;;;;;;23.40;7.88;;;11.30;99.90;;;;;;4999730;28;20545;-73
2023/12/13 09:54:47;;;;;;;27.92;7.95;;;11.20;99.90;;;;;;5002190;28;20037;-73
2023/12/13 09:57:14;;;;;;;22.65;7.22;;;11.20;99.90;;;;;;4999914;28;20061;-74
2023/12/13 09:59:40;;;;;;;21.60;6.13;;;11.20;99.90;;;;;;5001278;28;20014;-74
2023/12/13 10:02:12;;;;;;;18.27;5.93;;;11.20;99.90;;;;;;5004264;28;20391;-74
2023/12/13 10:04:39;;;;;;;19.67;5.75;;;11.20;99.90;;;;;;5002592;28;20022;-74
2023/12/13 10:07:08;;;;;;;19.75;6.28;;;11.20;99.90;;;;;;4998313;28;20109;-73
2023/12/13 10:09:34;;;;;;;20.70;5.95;;;11.30;99.90;;;;;;5003386;28;21614;-74
2023/12/13 10:12:00;;;;;;;19.85;6.55;;;11.30;99.90;;;;;;4998562;28;20422;-74
2023/12/13 10:14:27;;;;;;;28.55;7.03;;;11.20;99.90;;;;;;5001666;28;20112;-74
2023/12/13 10:16:53;;;;;;;22.33;6.22;;;11.20;99.90;;;;;;5001777;28;20076;-74
2023/12/13 10:19:19;;;;;;;20.75;7.32;;;11.30;99.90;;;;;;5000459;28;20439;-74
2023/12/13 10:21:48;;;;;;;23.30;6.65;;;11.30;99.90;;;;;;5002791;28;20034;-74
2023/12/13 10:24:15;;;;;;;18.25;5.65;;;11.20;99.90;;;;;;4998220;28;20018;-74
2023/12/13 10:26:41;;;;;;;17.85;6.28;;;11.20;99.90;;;;;;5003775;28;20069;-74
2023/12/13 10:29:07;;;;;;;18.73;5.25;;;11.30;99.90;;;;;;5003771;28;20052;-74
2023/12/13 10:31:35;;;;;;;20.20;6.45;;;11.20;99.90;;;;;;5003418;28;20033;-74
2023/12/13 10:34:01;;;;;;;28.75;7.15;;;11.20;99.90;;;;;;4986807;28;20056;-74
2023/12/13 10:36:28;;;;;;;21.40;6.32;;;11.20;99.90;;;;;;5001478;28;20026;-74
2023/12/13 10:38:55;;;;;;;18.65;6.75;;;11.20;99.90;;;;;;5002687;28;20032;-74
2023/12/13 10:41:30;;;;;;;27.73;6.43;;;11.20;99.90;;;;;;5001952;28;20129;-74
2023/12/13 10:43:58;;;;;;;20.92;6.10;;;11.20;99.90;;;;;;5004701;28;20032;-74
2023/12/13 10:46:33;;;;;;;17.17;6.35;;;11.20;99.90;;;;;;4998510;28;20030;-74
2023/12/13 10:49:03;;;;;;;30.67;6.65;;;11.30;99.90;;;;;;5000766;28;20030;-74
2023/12/13 10:51:30;;;;;;;23.50;6.18;;;11.30;99.90;;;;;;5001300;28;20228;-73
2023/12/13 10:53:57;;;;;;;24.75;6.45;;;11.40;99.90;;;;;;4998916;28;20030;-74
2023/12/13 10:56:23;;;;;;;31.17;6.60;;;11.40;99.90;;;;;;5002697;28;20117;-73
2023/12/13 10:58:49;;;;;;;22.00;5.82;;;11.30;99.90;;;;;;4998352;28;20482;-73
2023/12/13 11:01:17;;;;;;;22.55;6.22;;;11.30;99.90;;;;;;5001336;28;20026;-75
2023/12/13 11:04:08;;;;;;;17.95;6.57;;;11.30;99.90;;;;;;5000133;28;20031;-73
2023/12/13 11:06:36;;;;;;;21.95;6.00;;;11.30;99.90;;;;;;5003157;28;20025;-74
2023/12/13 11:09:14;;;;;;;18.83;6.20;;;11.30;99.90;;;;;;4996007;28;20494;-73
2023/12/13 11:11:42;;;;;;;19.92;5.93;;;11.30;99.90;;;;;;5001167;28;20027;-74
2023/12/13 11:14:09;;;;;;;23.85;6.93;;;11.30;99.90;;;;;;4997893;28;20030;-74
2023/12/13 11:16:45;;;;;;;23.67;6.30;;;11.40;99.90;;;;;;4997128;28;20038;-74
2023/12/13 11:19:13;;;;;;;20.85;6.30;;;11.40;99.90;;;;;;4999137;28;20546;-74
2023/12/13 11:21:41;;;;;;;26.83;7.38;;;11.40;99.90;;;;;;5000564;28;20022;-74
2023/12/13 11:24:13;;;;;;;24.40;6.55;;;11.50;99.90;;;;;;4998291;28;20033;-74
2023/12/13 11:26:50;;;;;;;;;;;11.40;99.90;;;;;;5004111;28;20069;-74
2023/12/13 11:29:26;;;;;;;21.23;5.95;;;11.40;99.90;;;;;;4998070;28;19944;-74
2023/12/13 11:32:00;;;;;;;21.08;5.13;;;11.40;99.90;;;;;;4997581;28;20060;-74
2023/12/13 11:34:32;;;;;;;26.15;6.43;;;11.40;99.90;;;;;;5000819;28;20382;-74
2023/12/13 11:37:03;;;;;;;19.92;6.43;;;11.30;99.90;;;;;;4999236;28;20041;-75
2023/12/13 11:39:29;;;;;;;14.25;6.30;;;11.40;99.90;;;;;;4996847;28;20112;-74
2023/12/13 11:41:55;;;;;;;18.83;6.60;;;11.40;99.90;;;;;;5001929;28;20022;-75
2023/12/13 11:44:21;;;;;;;20.30;6.78;;;11.40;99.90;;;;;;4999586;28;20061;-74
2023/12/13 11:46:54;;;;;;;21.92;6.45;;;11.50;99.90;;;;;;4999654;28;20037;-74
2023/12/13 11:49:21;;;;;;;15.95;6.72;;;11.50;99.90;;;;;;4997551;28;20034;-74
2023/12/13 11:51:47;;;;;;;19.48;6.80;;;11.60;99.90;;;;;;4999274;28;20359;-74
2023/12/13 11:54:13;;;;;;;20.05;6.28;;;11.60;99.90;;;;;;4997665;28;20088;-74
2023/12/13 11:56:42;;;;;;;16.25;6.03;;;11.60;99.90;;;;;;4996779;28;20369;-74
2023/12/13 11:59:07;;;;;;;15.75;6.22;;;11.60;99.90;;;;;;4998714;28;20026;-74
2023/12/13 12:01:33;;;;;;;18.92;6.10;;;11.60;99.90;;;;;;4999009;28;20088;-74
2023/12/13 12:03:59;;;;;;;23.88;6.63;;;11.60;99.90;;;;;;4997554;28;20080;-74
2023/12/13 12:06:25;;;;;;;18.98;6.25;;;11.70;99.90;;;;;;4997466;28;20022;-74
2023/12/13 12:08:51;;;;;;;18.08;6.03;;;11.70;99.90;;;;;;5004347;28;20033;-74
2023/12/13 12:11:23;;;;;;;15.52;5.32;;;11.80;99.90;;;;;;4998432;28;20030;-74
2023/12/13 12:13:52;;;;;;;18.00;5.32;;;11.80;99.90;;;;;;4999695;28;20022;-74
2023/12/13 12:16:19;;;;;;;18.92;5.90;;;11.80;99.90;;;;;;4997240;28;20030;-74
2023/12/13 12:18:46;;;;;;;12.50;5.18;;;11.80;99.90;;;;;;4999945;28;20027;-74
2023/12/13 12:21:12;;;;;;;13.35;4.82;;;11.80;99.90;;;;;;4998060;28;20029;-74
2023/12/13 12:23:43;;;;;;;15.07;5.43;;;11.80;99.90;;;;;;4997311;28;20022;-74
2023/12/13 12:26:10;;;;;;;16.67;5.60;;;11.80;99.90;;;;;;4985185;28;20356;-75
2023/12/13 12:28:38;;;;;;;17.77;5.65;;;11.80;99.90;;;;;;4981929;28;20030;-75
2023/12/13 12:31:04;;;;;;;16.25;5.00;;;11.70;99.90;;;;;;4997852;28;20049;-74
2023/12/13 12:33:30;;;;;;;13.30;5.22;;;11.60;99.90;;;;;;4999686;28;20033;-75
2023/12/13 12:35:57;;;;;;;15.63;5.10;;;11.70;99.90;;;;;;4996799;28;20082;-74